createdAt,value
2022-12-06T00:00:30.058Z,5.00
2022-12-06T00:03:17.021Z,5.00
2022-12-06T00:06:06.139Z,5.70
2022-12-06T00:08:53.973Z,5.00
2022-12-06T00:11:41.488Z,5.10
2022-12-06T00:14:28.435Z,5.10
2022-12-06T00:17:15.321Z,5.10
2022-12-06T00:20:02.423Z,5.50
2022-12-06T00:22:49.435Z,5.10
2022-12-06T00:25:36.292Z,5.10
2022-12-06T00:28:23.770Z,5.20
2022-12-06T00:31:14.508Z,5.20
2022-12-06T00:34:04.572Z,5.20
2022-12-06T00:36:51.437Z,5.60
2022-12-06T00:39:38.329Z,5.20
2022-12-06T00:42:25.316Z,5.20
2022-12-06T00:45:12.808Z,6.10
2022-12-06T00:47:59.693Z,5.30
2022-12-06T00:50:46.805Z,5.30
2022-12-06T00:53:33.701Z,5.30
2022-12-06T00:56:20.677Z,5.30
2022-12-06T00:59:10.153Z,5.30
2022-12-06T01:01:57.682Z,6.50
2022-12-06T01:04:44.569Z,6.20
2022-12-06T01:07:31.455Z,5.50
2022-12-06T01:10:18.525Z,5.40
2022-12-06T01:13:05.967Z,6.20
2022-12-06T01:15:53.470Z,5.30
2022-12-06T01:18:41.734Z,5.30
2022-12-06T01:21:29.010Z,7.00
2022-12-06T01:24:15.873Z,5.40
2022-12-06T01:27:02.819Z,5.40
2022-12-06T01:29:49.802Z,5.40
2022-12-06T01:32:36.899Z,5.40
2022-12-06T01:35:24.468Z,5.40
2022-12-06T01:38:11.970Z,5.40
2022-12-06T01:40:59.117Z,5.80
2022-12-06T01:43:46.734Z,7.10
2022-12-06T01:46:39.046Z,5.40
2022-12-06T01:49:33.974Z,5.30
2022-12-06T01:52:24.112Z,5.30
2022-12-06T01:55:14.346Z,5.40
2022-12-06T01:58:08.230Z,5.40
2022-12-06T02:00:55.196Z,5.40
2022-12-06T02:03:43.128Z,5.40
2022-12-06T02:06:31.511Z,5.40
2022-12-06T02:09:20.386Z,6.40
2022-12-06T02:12:12.816Z,5.40
2022-12-06T02:14:59.782Z,5.50
2022-12-06T02:17:53.216Z,5.40
2022-12-06T02:20:44.339Z,5.40
2022-12-06T02:23:46.743Z,5.40
2022-12-06T02:26:42.639Z,5.40
2022-12-06T02:29:53.271Z,6.10
2022-12-06T02:32:54.665Z,5.40
2022-12-06T02:35:48.507Z,5.50
2022-12-06T02:38:42.963Z,6.60
2022-12-06T02:41:35.212Z,7.30
2022-12-06T02:44:28.403Z,5.40
2022-12-06T02:47:21.413Z,5.40
2022-12-06T02:50:13.155Z,5.40
2022-12-06T02:53:02.293Z,5.60
2022-12-06T02:55:50.888Z,5.40
2022-12-06T02:58:38.325Z,5.40
2022-12-06T03:01:29.375Z,7.30
2022-12-06T03:04:45.557Z,5.40
2022-12-06T03:07:42.327Z,5.50
2022-12-06T03:15:44.504Z,5.40
2022-12-06T03:18:36.727Z,5.40
2022-12-06T03:21:27.546Z,5.40
2022-12-06T03:24:16.101Z,6.50
2022-12-06T03:27:07.189Z,5.40
2022-12-06T03:29:58.449Z,5.40
2022-12-06T03:32:49.081Z,5.40
2022-12-06T03:35:37.274Z,5.40
2022-12-06T03:38:30.953Z,5.40
2022-12-06T03:41:22.073Z,5.40
2022-12-06T03:44:09.089Z,5.50
2022-12-06T03:47:01.813Z,6.40
2022-12-06T03:49:52.682Z,5.90
2022-12-06T03:52:39.560Z,5.50
2022-12-06T03:55:26.602Z,5.50
2022-12-06T03:58:14.151Z,5.50
2022-12-06T04:01:04.025Z,5.50
2022-12-06T04:03:50.977Z,6.80
2022-12-06T04:06:37.919Z,5.50
2022-12-06T04:09:42.948Z,5.70
2022-12-06T04:13:03.242Z,5.50
2022-12-06T04:15:55.142Z,5.40
2022-12-06T04:18:41.767Z,5.50
2022-12-06T04:21:47.019Z,5.50
2022-12-06T04:24:33.899Z,6.50
2022-12-06T04:27:44.420Z,5.50
2022-12-06T04:30:49.506Z,7.20
2022-12-06T04:33:55.028Z,5.50
2022-12-06T04:37:00.926Z,5.50
2022-12-06T04:39:47.858Z,5.50
2022-12-06T04:42:52.848Z,5.50
2022-12-06T04:45:39.739Z,5.50
2022-12-06T04:48:26.627Z,5.50
2022-12-06T04:51:14.153Z,5.50
2022-12-06T04:54:01.071Z,5.50
2022-12-06T04:56:47.936Z,6.00
2022-12-06T04:59:34.822Z,5.50
2022-12-06T05:02:21.709Z,5.50
2022-12-06T05:05:08.917Z,5.50
2022-12-06T05:07:56.468Z,5.50
2022-12-06T05:10:46.507Z,5.60
2022-12-06T05:13:33.348Z,5.50
2022-12-06T05:16:20.307Z,5.60
2022-12-06T05:19:07.253Z,5.50
2022-12-06T05:21:59.727Z,5.50
2022-12-06T05:24:47.216Z,5.50
2022-12-06T05:27:36.069Z,7.20
2022-12-06T05:30:23.243Z,5.50
2022-12-06T05:33:10.104Z,5.50
2022-12-06T05:35:57.253Z,5.50
2022-12-06T05:38:48.540Z,5.50
2022-12-06T05:41:38.745Z,5.50
2022-12-06T05:44:25.604Z,5.50
2022-12-06T05:47:12.486Z,5.50
2022-12-06T05:49:59.579Z,7.00
2022-12-06T05:52:46.609Z,5.60
2022-12-06T05:55:33.480Z,5.90
2022-12-06T05:58:21.759Z,5.60
2022-12-06T06:01:34.236Z,5.60
2022-12-06T06:04:21.121Z,5.60
2022-12-06T06:07:07.994Z,6.80
2022-12-06T06:09:55.094Z,5.60
2022-12-06T06:12:42.081Z,6.20
2022-12-06T06:15:29.593Z,5.50
2022-12-06T06:18:17.237Z,5.70
2022-12-06T06:21:04.327Z,5.60
2022-12-06T06:23:51.195Z,5.60
2022-12-06T06:26:38.075Z,5.60
2022-12-06T06:29:24.932Z,5.50
2022-12-06T06:32:12.888Z,5.60
2022-12-06T06:35:00.154Z,7.00
2022-12-06T06:37:47.373Z,5.50
2022-12-06T06:40:34.578Z,5.60
2022-12-06T06:43:21.461Z,5.60
2022-12-06T06:46:09.492Z,5.60
2022-12-06T06:48:57.124Z,5.60
2022-12-06T06:51:44.033Z,5.50
2022-12-06T06:54:30.884Z,7.30
2022-12-06T06:57:18.176Z,5.60
2022-12-06T07:00:07.378Z,5.60
2022-12-06T07:02:54.308Z,5.60
2022-12-06T07:05:42.774Z,5.70
2022-12-06T07:08:31.023Z,5.50
2022-12-06T07:11:17.952Z,5.50
2022-12-06T07:14:04.878Z,5.50
2022-12-06T07:16:51.770Z,5.50
2022-12-06T07:19:38.708Z,5.50
2022-12-06T07:22:26.229Z,5.50
2022-12-06T07:25:13.384Z,5.50
2022-12-06T07:28:00.313Z,5.60
2022-12-06T07:30:49.999Z,5.50
2022-12-06T07:33:37.509Z,5.50
2022-12-06T07:36:27.126Z,5.50
2022-12-06T07:39:15.241Z,5.60
2022-12-06T07:42:20.206Z,6.30
2022-12-06T07:45:13.549Z,5.60
2022-12-06T07:48:00.409Z,5.60
2022-12-06T07:50:56.341Z,5.60
2022-12-06T07:53:43.190Z,7.50
2022-12-06T07:56:30.709Z,5.60
2022-12-06T07:59:17.601Z,5.70
2022-12-06T08:02:04.568Z,5.60
2022-12-06T08:04:52.098Z,5.60
2022-12-06T08:07:39.371Z,5.60
2022-12-06T08:10:26.744Z,5.60
2022-12-06T08:13:14.222Z,4.80
2022-12-06T08:16:04.839Z,5.70
2022-12-06T08:18:52.157Z,5.70
2022-12-06T08:21:39.054Z,5.70
2022-12-06T08:24:26.140Z,5.70
2022-12-06T08:27:13.006Z,7.20
2022-12-06T08:30:00.950Z,5.80
2022-12-06T08:32:47.978Z,7.40
2022-12-06T08:35:36.255Z,5.80
2022-12-06T08:38:23.202Z,5.80
2022-12-06T08:41:25.918Z,5.90
2022-12-06T08:44:14.579Z,5.90
2022-12-06T08:47:02.093Z,5.90
2022-12-06T08:49:49.863Z,5.90
2022-12-06T08:52:36.725Z,8.00
2022-12-06T08:55:23.805Z,5.90
2022-12-06T08:58:10.687Z,5.90
2022-12-06T09:00:57.575Z,5.90
2022-12-06T09:03:45.080Z,5.90
2022-12-06T09:06:32.104Z,6.00
2022-12-06T09:09:19.547Z,6.00
2022-12-06T09:12:06.499Z,6.00
2022-12-06T09:14:53.403Z,6.00
2022-12-06T09:17:40.257Z,6.10
2022-12-06T09:20:27.759Z,7.50
2022-12-06T09:23:14.580Z,6.10
2022-12-06T09:26:01.782Z,6.20
2022-12-06T09:28:49.858Z,6.90
2022-12-06T09:31:39.329Z,6.50
2022-12-06T09:34:26.211Z,6.20
2022-12-06T09:37:14.007Z,6.30
2022-12-06T09:40:10.859Z,6.30
2022-12-06T09:43:25.143Z,6.40
2022-12-06T09:46:26.374Z,6.40
2022-12-06T09:49:27.668Z,6.50
2022-12-06T09:52:35.688Z,6.50
2022-12-06T09:55:32.219Z,6.50
2022-12-06T09:58:30.804Z,6.60
2022-12-06T10:01:28.390Z,7.50
2022-12-06T10:04:38.542Z,7.20
2022-12-06T10:07:36.677Z,7.70
2022-12-06T10:10:36.767Z,6.70
2022-12-06T10:13:38.177Z,6.70
2022-12-06T10:16:37.747Z,6.90
2022-12-06T10:19:36.385Z,6.80
2022-12-06T10:22:32.778Z,7.80
2022-12-06T10:25:24.174Z,6.80
2022-12-06T10:28:13.534Z,6.90
2022-12-06T10:31:08.263Z,6.90
2022-12-06T10:33:57.615Z,6.90
2022-12-06T10:36:54.211Z,6.90
2022-12-06T10:39:52.056Z,6.80
2022-12-06T10:42:43.794Z,6.80
2022-12-06T10:45:54.623Z,6.70
2022-12-06T10:48:56.649Z,6.60
2022-12-06T10:51:48.218Z,6.50
2022-12-06T10:54:50.552Z,6.50
2022-12-06T10:57:45.147Z,6.60
2022-12-06T11:00:39.876Z,6.50
2022-12-06T11:03:31.980Z,6.70
2022-12-06T11:06:27.832Z,6.80
2022-12-06T11:09:20.220Z,7.00
2022-12-06T11:12:20.447Z,7.10
2022-12-06T11:15:19.641Z,8.30
2022-12-06T11:18:12.128Z,7.10
2022-12-06T11:21:05.808Z,7.10
2022-12-06T11:24:00.557Z,7.00
2022-12-06T11:26:52.770Z,7.00
2022-12-06T11:29:42.210Z,7.10
2022-12-06T11:32:29.449Z,7.20
2022-12-06T11:35:19.722Z,7.30
2022-12-06T11:38:07.057Z,7.30
2022-12-06T11:40:54.744Z,7.50
2022-12-06T11:46:55.458Z,7.10
2022-12-06T11:49:44.981Z,7.20
2022-12-06T11:52:38.244Z,7.20
2022-12-06T11:55:28.267Z,7.20
2022-12-06T11:58:19.336Z,7.10
2022-12-06T12:01:10.177Z,7.30
2022-12-06T12:03:57.725Z,7.10
2022-12-06T12:06:46.342Z,7.20
2022-12-06T12:09:36.452Z,7.60
2022-12-06T12:12:45.978Z,9.00
2022-12-06T12:15:33.555Z,7.40
2022-12-06T12:18:23.311Z,8.70
2022-12-06T12:21:11.007Z,9.60
2022-12-06T12:23:57.921Z,8.70
2022-12-06T12:26:44.796Z,7.50
2022-12-06T12:29:31.969Z,7.50
2022-12-06T12:32:18.892Z,7.50
2022-12-06T12:35:24.915Z,7.50
2022-12-06T12:38:21.720Z,7.50
2022-12-06T12:41:23.017Z,8.90
2022-12-06T12:47:23.627Z,7.20
2022-12-06T12:50:19.352Z,7.00
2022-12-06T12:53:29.861Z,6.90
2022-12-06T12:56:18.977Z,6.80
2022-12-06T12:59:15.051Z,8.90
2022-12-06T13:02:11.036Z,6.70
2022-12-06T13:05:32.636Z,6.80
2022-12-06T13:08:14.962Z,6.80
2022-12-06T13:11:04.996Z,6.80
2022-12-06T13:13:54.872Z,6.80
2022-12-06T13:16:42.117Z,6.80
2022-12-06T13:19:34.877Z,6.80
2022-12-06T13:22:25.670Z,6.90
2022-12-06T13:25:12.842Z,7.00
2022-12-06T13:28:05.988Z,7.00
2022-12-06T13:31:00.221Z,7.10
2022-12-06T13:33:51.559Z,7.10
2022-12-06T13:36:38.506Z,8.50
2022-12-06T13:39:36.723Z,7.20
2022-12-06T13:42:41.098Z,7.20
2022-12-06T13:45:44.448Z,8.40
2022-12-06T13:48:37.378Z,7.20
2022-12-06T13:51:45.330Z,7.20
2022-12-06T13:54:33.271Z,7.20
2022-12-06T13:57:30.909Z,7.10
2022-12-06T14:00:50.116Z,7.10
2022-12-06T14:03:40.446Z,7.10
2022-12-06T14:06:42.275Z,7.10
2022-12-06T14:09:37.913Z,7.10
2022-12-06T14:12:27.659Z,7.10
2022-12-06T14:15:18.571Z,7.00
2022-12-06T14:18:12.754Z,7.00
2022-12-06T14:21:01.912Z,7.00
2022-12-06T14:23:48.943Z,7.10
2022-12-06T14:26:35.849Z,7.00
2022-12-06T14:29:23.882Z,7.90
2022-12-06T14:32:10.872Z,6.90
2022-12-06T14:35:07.184Z,6.90
2022-12-06T14:37:56.319Z,7.10
2022-12-06T14:41:03.039Z,7.40
2022-12-06T14:43:50.093Z,6.90
2022-12-06T14:46:37.435Z,6.90
2022-12-06T14:49:44.406Z,6.90
2022-12-06T14:52:31.911Z,6.90
2022-12-06T14:55:19.628Z,6.90
2022-12-06T14:58:15.739Z,6.90
2022-12-06T15:01:05.482Z,8.00
2022-12-06T15:04:01.150Z,6.80
2022-12-06T15:06:53.517Z,6.80
2022-12-06T15:09:45.186Z,6.70
2022-12-06T15:13:02.844Z,6.70
2022-12-06T15:16:14.833Z,6.70
2022-12-06T15:19:11.307Z,6.60
2022-12-06T15:21:58.354Z,6.60
2022-12-06T15:24:46.681Z,6.50
2022-12-06T15:27:33.567Z,6.50
2022-12-06T15:30:20.677Z,6.50
2022-12-06T15:33:15.109Z,6.50
2022-12-06T15:36:02.002Z,6.50
2022-12-06T15:38:49.414Z,6.50
2022-12-06T15:41:37.654Z,6.40
2022-12-06T15:44:25.994Z,6.40
2022-12-06T15:47:12.842Z,6.40
2022-12-06T15:50:00.806Z,6.40
2022-12-06T15:52:47.636Z,6.30
2022-12-06T15:55:34.500Z,6.30
2022-12-06T15:58:22.108Z,6.30
2022-12-06T16:01:15.473Z,6.30
2022-12-06T16:04:02.804Z,6.20
2022-12-06T16:06:50.328Z,6.20
2022-12-06T16:09:37.497Z,6.20
2022-12-06T16:12:24.368Z,6.20
2022-12-06T16:15:11.839Z,6.10
2022-12-06T16:17:58.724Z,7.30
2022-12-06T16:20:46.264Z,6.10
2022-12-06T16:26:58.513Z,6.20
2022-12-06T16:29:45.424Z,6.20
2022-12-06T16:32:33.165Z,6.60
2022-12-06T16:35:20.058Z,6.10
2022-12-06T16:38:11.011Z,6.10
2022-12-06T16:41:06.450Z,7.70
2022-12-06T16:43:53.491Z,6.10
2022-12-06T16:46:41.812Z,6.10
2022-12-06T16:49:45.918Z,6.00
2022-12-06T16:52:34.552Z,6.10
2022-12-06T16:55:21.631Z,6.10
2022-12-06T16:58:08.940Z,7.40
2022-12-06T17:00:55.849Z,6.10
2022-12-06T17:03:48.522Z,6.10
2022-12-06T17:06:36.531Z,6.10
2022-12-06T17:09:23.416Z,6.10
2022-12-06T17:12:12.352Z,6.10
2022-12-06T17:15:00.117Z,6.10
2022-12-06T17:17:47.864Z,6.10
2022-12-06T17:20:36.295Z,8.30
2022-12-06T17:23:23.900Z,6.10
2022-12-06T17:26:10.779Z,6.50
2022-12-06T17:28:57.998Z,6.20
2022-12-06T17:31:45.040Z,6.20
2022-12-06T17:34:32.099Z,6.20
2022-12-06T17:37:19.051Z,7.20
2022-12-06T17:40:08.153Z,6.10
2022-12-06T17:43:00.449Z,6.10
2022-12-06T17:45:47.394Z,6.10
2022-12-06T17:48:37.947Z,7.20
2022-12-06T17:51:28.302Z,6.20
2022-12-06T17:54:15.569Z,6.20
2022-12-06T17:57:03.320Z,6.20
2022-12-06T17:59:50.193Z,6.20
2022-12-06T18:02:37.928Z,6.20
2022-12-06T18:05:24.925Z,6.20
2022-12-06T18:08:11.848Z,8.50
2022-12-06T18:10:59.115Z,6.20
2022-12-06T18:13:47.050Z,6.20
2022-12-06T18:16:35.609Z,6.50
2022-12-06T18:19:23.540Z,6.20
2022-12-06T18:22:10.414Z,6.20
2022-12-06T18:24:57.315Z,6.20
2022-12-06T18:27:44.227Z,6.20
2022-12-06T18:30:31.770Z,6.20
2022-12-06T18:33:21.368Z,7.30
2022-12-06T18:36:10.150Z,6.20
2022-12-06T18:38:58.128Z,7.30
2022-12-06T18:41:45.173Z,6.10
2022-12-06T18:44:32.043Z,6.20
2022-12-06T18:47:19.570Z,6.20
2022-12-06T18:50:10.203Z,6.20
2022-12-06T18:52:57.526Z,6.20
2022-12-06T18:55:44.495Z,6.20
2022-12-06T18:58:31.387Z,6.20
2022-12-06T19:01:23.191Z,6.60
2022-12-06T19:04:13.811Z,6.20
2022-12-06T19:07:00.972Z,6.10
2022-12-06T19:09:47.847Z,6.10
2022-12-06T19:12:34.724Z,6.30
2022-12-06T19:15:21.627Z,6.40
2022-12-06T19:18:12.611Z,6.10
2022-12-06T19:21:12.003Z,6.10
2022-12-06T19:23:58.987Z,6.40
2022-12-06T19:26:46.357Z,6.00
2022-12-06T19:29:34.849Z,5.90
2022-12-06T19:32:21.745Z,5.90
2022-12-06T19:35:09.120Z,5.90
2022-12-06T19:37:56.693Z,5.70
2022-12-06T19:40:43.605Z,5.70
2022-12-06T19:43:48.908Z,5.70
2022-12-06T19:46:36.345Z,5.70
2022-12-06T19:49:25.062Z,6.30
2022-12-06T19:52:12.037Z,5.80
2022-12-06T19:54:59.595Z,5.70
2022-12-06T19:57:47.763Z,7.50
2022-12-06T20:00:34.683Z,5.70
2022-12-06T20:03:21.604Z,5.70
2022-12-06T20:06:17.845Z,5.60
2022-12-06T20:09:05.056Z,5.60
2022-12-06T20:12:02.147Z,5.70
2022-12-06T20:14:49.742Z,5.60
2022-12-06T20:17:36.639Z,5.60
2022-12-06T20:20:23.848Z,5.60
2022-12-06T20:23:10.896Z,7.20
2022-12-06T20:25:58.693Z,5.50
2022-12-06T20:28:47.364Z,5.50
2022-12-06T20:31:34.887Z,5.50
2022-12-06T20:34:21.844Z,5.50
2022-12-06T20:37:09.765Z,5.50
2022-12-06T20:39:57.053Z,5.50
2022-12-06T20:42:46.077Z,5.60
2022-12-06T20:45:33.890Z,7.20
2022-12-06T20:48:20.812Z,5.60
2022-12-06T20:51:09.643Z,5.60
2022-12-06T20:53:59.035Z,5.60
2022-12-06T20:56:49.997Z,5.60
2022-12-06T20:59:38.451Z,5.50
2022-12-06T21:02:26.013Z,5.40
2022-12-06T21:05:12.922Z,5.40
2022-12-06T21:08:20.139Z,6.70
2022-12-06T21:11:22.500Z,6.70
2022-12-06T21:14:11.834Z,5.70
2022-12-06T21:16:58.743Z,5.50
2022-12-06T21:19:46.282Z,5.50
2022-12-06T21:22:33.217Z,5.80
2022-12-06T21:25:20.129Z,5.60
2022-12-06T21:28:06.990Z,5.60
2022-12-06T21:30:55.063Z,5.70
2022-12-06T21:33:42.034Z,5.70
2022-12-06T21:36:29.958Z,5.80
2022-12-06T21:39:16.855Z,6.20
2022-12-06T21:42:03.726Z,5.80
2022-12-06T21:44:50.605Z,5.80
2022-12-06T21:47:37.468Z,5.80
2022-12-06T21:50:24.341Z,5.80
2022-12-06T21:53:11.834Z,5.80
2022-12-06T21:55:58.843Z,5.80
2022-12-06T21:58:46.342Z,5.90
2022-12-06T22:01:33.261Z,8.30
2022-12-06T22:04:20.242Z,5.90
2022-12-06T22:07:07.159Z,7.30
2022-12-06T22:09:54.678Z,7.40
2022-12-06T22:12:41.561Z,5.70
2022-12-06T22:15:28.454Z,5.70
2022-12-06T22:18:15.885Z,5.70
2022-12-06T22:21:04.751Z,5.80
2022-12-06T22:23:52.420Z,6.80
2022-12-06T22:26:39.947Z,5.80
2022-12-06T22:29:27.013Z,5.70
2022-12-06T22:32:13.905Z,5.70
2022-12-06T22:35:01.054Z,6.10
2022-12-06T22:37:47.916Z,5.60
2022-12-06T22:40:37.887Z,6.80
2022-12-06T22:43:25.751Z,5.50
2022-12-06T22:46:15.109Z,5.60
2022-12-06T22:49:02.594Z,5.50
2022-12-06T22:52:12.573Z,5.60
2022-12-06T22:54:59.479Z,5.60
2022-12-06T22:57:46.403Z,5.60
2022-12-06T23:00:33.908Z,5.80
2022-12-06T23:03:20.851Z,5.50
2022-12-06T23:06:08.042Z,5.50
2022-12-06T23:08:55.361Z,6.90
2022-12-06T23:11:42.673Z,6.10
2022-12-06T23:14:29.703Z,5.40
2022-12-06T23:17:17.217Z,5.40
2022-12-06T23:20:05.678Z,5.50
2022-12-06T23:22:52.830Z,5.50
2022-12-06T23:25:39.712Z,5.50
2022-12-06T23:28:26.585Z,5.60
2022-12-06T23:31:19.462Z,5.40
2022-12-06T23:34:10.574Z,5.40
2022-12-06T23:36:57.466Z,6.00
2022-12-06T23:39:44.970Z,6.00
2022-12-06T23:42:31.884Z,5.70
2022-12-06T23:45:18.798Z,5.50
2022-12-06T23:48:05.971Z,5.10
2022-12-06T23:51:01.407Z,4.80
2022-12-06T23:53:50.298Z,4.80
2022-12-06T23:56:39.157Z,4.80
2022-12-06T23:59:26.057Z,4.80
